createdAt,value
2023-03-11T00:01:11.083Z,1.27
2023-03-11T00:03:38.388Z,1.80
2023-03-11T00:06:06.253Z,1.83
2023-03-11T00:08:33.910Z,1.83
2023-03-11T00:11:01.702Z,1.93
2023-03-11T00:13:29.500Z,2.00
2023-03-11T00:15:56.960Z,2.17
2023-03-11T00:18:26.633Z,2.00
2023-03-11T00:20:55.739Z,1.70
2023-03-11T00:23:23.226Z,2.17
2023-03-11T00:25:50.555Z,1.93
2023-03-11T00:28:17.904Z,2.20
2023-03-11T00:30:46.358Z,1.93
2023-03-11T00:33:14.622Z,1.90
2023-03-11T00:35:42.438Z,1.80
2023-03-11T00:38:11.561Z,1.70
2023-03-11T00:40:39.334Z,1.80
2023-03-11T00:43:06.749Z,1.90
2023-03-11T00:45:34.103Z,1.57
2023-03-11T00:48:01.618Z,2.33
2023-03-11T00:50:31.399Z,2.10
2023-03-11T00:52:59.195Z,2.43
2023-03-11T00:55:31.374Z,2.30
2023-03-11T00:58:00.308Z,2.17
2023-03-11T01:00:28.416Z,1.80
2023-03-11T01:02:56.634Z,1.80
2023-03-11T01:05:25.837Z,1.57
2023-03-11T01:07:53.327Z,2.43
2023-03-11T01:10:20.841Z,2.07
2023-03-11T01:12:48.366Z,2.30
2023-03-11T01:15:17.226Z,2.30
2023-03-11T01:17:44.611Z,2.03
2023-03-11T01:20:12.418Z,2.60
2023-03-11T01:22:39.760Z,1.80
2023-03-11T01:25:07.196Z,2.57
2023-03-11T01:27:34.544Z,2.27
2023-03-11T01:30:02.206Z,2.00
2023-03-11T01:32:30.715Z,2.27
2023-03-11T01:34:58.580Z,1.87
2023-03-11T01:37:26.248Z,1.80
2023-03-11T01:39:53.674Z,1.90
2023-03-11T01:42:21.033Z,2.10
2023-03-11T01:44:48.370Z,1.90
2023-03-11T01:47:17.432Z,2.60
2023-03-11T01:49:44.730Z,2.33
2023-03-11T01:52:12.105Z,2.70
2023-03-11T01:54:40.496Z,2.10
2023-03-11T01:57:09.571Z,2.40
2023-03-11T01:59:38.437Z,2.50
2023-03-11T02:02:07.442Z,1.90
2023-03-11T02:04:36.214Z,2.43
2023-03-11T02:07:04.159Z,1.60
2023-03-11T02:09:31.486Z,2.23
2023-03-11T02:11:58.924Z,2.60
2023-03-11T02:14:26.619Z,2.30
2023-03-11T02:16:54.315Z,2.40
2023-03-11T02:19:25.861Z,2.00
2023-03-11T02:21:53.198Z,2.47
2023-03-11T02:24:22.051Z,2.23
2023-03-11T02:27:03.385Z,2.10
2023-03-11T02:29:30.920Z,1.90
2023-03-11T02:31:58.774Z,1.97
2023-03-11T02:34:27.580Z,2.10
2023-03-11T02:36:54.979Z,2.43
2023-03-11T02:39:32.648Z,2.20
2023-03-11T02:42:01.681Z,1.70
2023-03-11T02:44:29.194Z,2.23
2023-03-11T02:46:56.909Z,1.80
2023-03-11T02:49:24.693Z,2.60
2023-03-11T02:51:52.266Z,2.20
2023-03-11T02:54:19.624Z,1.90
2023-03-11T02:56:46.955Z,2.30
2023-03-11T02:59:14.303Z,2.17
2023-03-11T03:01:41.650Z,2.10
2023-03-11T03:04:09.018Z,2.20
2023-03-11T03:06:36.404Z,2.20
2023-03-11T03:09:04.299Z,2.57
2023-03-11T03:11:31.817Z,2.50
2023-03-11T03:13:59.634Z,2.97
2023-03-11T03:16:27.003Z,2.43
2023-03-11T03:18:54.314Z,2.53
2023-03-11T03:21:21.651Z,2.60
2023-03-11T03:23:48.986Z,2.50
2023-03-11T03:26:16.437Z,2.87
2023-03-11T03:28:43.856Z,2.87
2023-03-11T03:31:11.393Z,2.90
2023-03-11T03:33:38.721Z,2.57
2023-03-11T03:36:10.427Z,3.40
2023-03-11T03:38:37.817Z,2.60
2023-03-11T03:41:05.205Z,3.17
2023-03-11T03:43:32.539Z,3.10
2023-03-11T03:46:01.250Z,3.13
2023-03-11T03:48:28.959Z,3.77
2023-03-11T03:50:56.267Z,4.10
2023-03-11T03:53:23.586Z,3.10
2023-03-11T03:55:50.920Z,2.80
2023-03-11T03:58:18.254Z,3.50
2023-03-11T04:00:45.580Z,3.23
2023-03-11T04:03:12.950Z,3.20
2023-03-11T04:05:40.479Z,3.30
2023-03-11T04:08:07.738Z,3.23
2023-03-11T04:10:35.062Z,2.80
2023-03-11T04:13:02.461Z,3.47
2023-03-11T04:15:29.793Z,3.03
2023-03-11T04:17:57.124Z,3.10
2023-03-11T04:20:24.456Z,3.37
2023-03-11T04:22:51.728Z,3.40
2023-03-11T04:25:19.070Z,2.37
2023-03-11T04:27:48.047Z,3.03
2023-03-11T04:30:15.437Z,3.00
2023-03-11T04:32:43.304Z,3.00
2023-03-11T04:35:10.730Z,2.37
2023-03-11T04:37:38.027Z,2.90
2023-03-11T04:40:06.891Z,2.73
2023-03-11T04:42:34.211Z,3.20
2023-03-11T04:45:01.547Z,3.10
2023-03-11T04:47:29.244Z,3.70
2023-03-11T04:49:56.581Z,3.23
2023-03-11T04:52:24.191Z,3.50
2023-03-11T04:54:51.535Z,2.80
2023-03-11T04:57:18.843Z,2.83
2023-03-11T04:59:46.126Z,2.83
2023-03-11T05:02:13.386Z,3.00
2023-03-11T05:04:40.685Z,3.83
2023-03-11T05:07:08.006Z,3.63
2023-03-11T05:09:35.875Z,3.57
2023-03-11T05:12:04.220Z,2.53
2023-03-11T05:14:31.546Z,3.70
2023-03-11T05:16:58.814Z,3.97
2023-03-11T05:19:33.945Z,3.67
2023-03-11T05:22:02.372Z,3.40
2023-03-11T05:24:30.217Z,3.40
2023-03-11T05:26:57.769Z,4.20
2023-03-11T05:29:25.667Z,3.60
2023-03-11T05:31:53.428Z,3.90
2023-03-11T05:34:21.004Z,3.90
2023-03-11T05:36:48.552Z,3.73
2023-03-11T05:39:15.920Z,3.30
2023-03-11T05:41:43.312Z,3.63
2023-03-11T05:44:10.636Z,3.30
2023-03-11T05:46:38.087Z,3.20
2023-03-11T05:49:05.469Z,3.53
2023-03-11T05:51:32.804Z,4.13
2023-03-11T05:54:00.915Z,2.80
2023-03-11T05:56:28.267Z,2.90
2023-03-11T05:58:57.475Z,3.47
2023-03-11T06:01:24.787Z,2.60
2023-03-11T06:03:52.223Z,3.23
2023-03-11T06:06:20.339Z,3.00
2023-03-11T06:08:49.305Z,3.60
2023-03-11T06:11:16.941Z,2.90
2023-03-11T06:13:44.284Z,2.17
2023-03-11T06:16:12.187Z,1.97
2023-03-11T06:18:39.499Z,3.67
2023-03-11T06:21:08.398Z,1.80
2023-03-11T06:23:35.659Z,2.90
2023-03-11T06:26:04.608Z,3.33
2023-03-11T06:28:32.513Z,2.10
2023-03-11T06:31:09.489Z,2.30
2023-03-11T06:33:36.758Z,2.63
2023-03-11T06:36:04.972Z,2.20
2023-03-11T06:38:32.937Z,2.30
2023-03-11T06:41:00.988Z,2.13
2023-03-11T06:43:28.327Z,2.40
2023-03-11T06:45:55.693Z,2.57
2023-03-11T06:48:23.346Z,2.10
2023-03-11T06:50:56.952Z,2.30
2023-03-11T06:53:24.294Z,3.00
2023-03-11T06:56:05.378Z,2.17
2023-03-11T06:58:33.517Z,1.70
2023-03-11T07:01:02.952Z,2.50
2023-03-11T07:03:30.616Z,2.40
2023-03-11T07:05:58.692Z,2.20
2023-03-11T07:08:26.284Z,2.60
2023-03-11T07:11:07.193Z,2.13
2023-03-11T07:13:34.881Z,1.97
2023-03-11T07:16:03.756Z,2.20
2023-03-11T07:18:31.067Z,2.23
2023-03-11T07:20:58.397Z,2.00
2023-03-11T07:23:25.640Z,2.40
2023-03-11T07:25:54.602Z,2.27
2023-03-11T07:28:22.687Z,2.40
2023-03-11T07:30:49.959Z,2.73
2023-03-11T07:33:17.280Z,2.50
2023-03-11T07:35:45.096Z,2.23
2023-03-11T07:38:12.419Z,3.23
2023-03-11T07:40:39.677Z,2.70
2023-03-11T07:43:06.972Z,2.13
2023-03-11T07:45:34.308Z,2.30
2023-03-11T07:48:01.641Z,2.10
2023-03-11T07:50:29.049Z,2.37
2023-03-11T07:52:56.350Z,2.17
2023-03-11T07:55:23.655Z,2.13
2023-03-11T07:57:51.572Z,2.60
2023-03-11T08:00:19.185Z,1.90
2023-03-11T08:02:46.598Z,2.20
2023-03-11T08:05:14.013Z,2.10
2023-03-11T08:07:41.330Z,2.37
2023-03-11T08:10:08.901Z,1.70
2023-03-11T08:12:36.244Z,2.13
2023-03-11T08:15:03.562Z,2.70
2023-03-11T08:17:30.793Z,1.93
2023-03-11T08:19:58.052Z,1.63
2023-03-11T08:22:25.307Z,1.90
2023-03-11T08:24:53.853Z,2.77
2023-03-11T08:27:21.367Z,1.90
2023-03-11T08:29:48.686Z,2.63
2023-03-11T08:32:16.043Z,2.03
2023-03-11T08:34:43.366Z,1.93
2023-03-11T08:37:10.688Z,2.50
2023-03-11T08:42:07.808Z,2.50
2023-03-11T08:44:35.090Z,2.00
2023-03-11T08:47:02.412Z,2.33
2023-03-11T08:49:29.733Z,2.63
2023-03-11T08:51:57.415Z,2.47
2023-03-11T08:54:24.665Z,2.23
2023-03-11T08:56:51.900Z,2.63
2023-03-11T08:59:19.155Z,2.73
2023-03-11T09:01:46.785Z,2.33
2023-03-11T09:04:14.392Z,2.60
2023-03-11T09:06:44.796Z,2.67
2023-03-11T09:09:12.756Z,3.20
2023-03-11T09:11:41.433Z,2.90
2023-03-11T09:14:08.750Z,2.50
2023-03-11T09:16:36.132Z,2.37
2023-03-11T09:19:05.124Z,2.50
2023-03-11T09:21:32.476Z,2.47
2023-03-11T09:24:00.139Z,2.80
2023-03-11T09:26:27.502Z,2.60
2023-03-11T09:28:54.875Z,2.13
2023-03-11T09:31:22.438Z,2.07
2023-03-11T09:33:51.627Z,2.10
2023-03-11T09:36:20.473Z,2.17
2023-03-11T09:38:48.364Z,2.60
2023-03-11T09:41:20.250Z,2.63
2023-03-11T09:43:49.023Z,2.63
2023-03-11T09:46:34.376Z,2.90
2023-03-11T09:49:09.196Z,2.33
2023-03-11T09:51:38.028Z,2.40
2023-03-11T09:54:06.650Z,2.23
2023-03-11T09:56:35.610Z,2.40
2023-03-11T09:59:04.469Z,2.30
2023-03-11T10:01:33.320Z,2.20
2023-03-11T10:04:08.029Z,2.00
2023-03-11T10:06:35.264Z,2.40
2023-03-11T10:09:15.881Z,2.13
2023-03-11T10:11:50.660Z,2.00
2023-03-11T10:14:19.449Z,2.30
2023-03-11T10:17:05.056Z,1.97
2023-03-11T10:19:48.939Z,1.60
2023-03-11T10:22:23.692Z,1.40
2023-03-11T10:24:52.535Z,1.73
2023-03-11T10:27:21.332Z,1.67
2023-03-11T10:29:52.976Z,2.40
2023-03-11T10:32:21.848Z,1.97
2023-03-11T10:34:50.673Z,2.10
2023-03-11T10:37:19.465Z,1.90
2023-03-11T10:39:48.672Z,1.77
2023-03-11T10:42:17.463Z,1.73
2023-03-11T10:44:45.154Z,1.90
2023-03-11T10:47:14.013Z,1.60
2023-03-11T10:49:41.357Z,1.40
2023-03-11T10:52:08.895Z,1.70
2023-03-11T10:54:42.409Z,1.90
2023-03-11T10:57:11.265Z,1.70
2023-03-11T10:59:42.995Z,1.57
2023-03-11T11:02:26.973Z,1.87
2023-03-11T11:05:07.867Z,1.80
2023-03-11T11:07:36.772Z,1.60
2023-03-11T11:10:15.061Z,2.00
2023-03-11T11:12:46.821Z,1.57
2023-03-11T11:15:15.602Z,1.60
2023-03-11T11:17:44.462Z,1.87
2023-03-11T11:20:13.622Z,1.77
2023-03-11T11:22:42.481Z,1.80
2023-03-11T11:25:11.379Z,1.93
2023-03-11T11:27:38.834Z,2.37
2023-03-11T11:30:10.374Z,1.60
2023-03-11T11:32:38.164Z,1.80
2023-03-11T11:35:07.180Z,1.50
2023-03-11T11:37:36.048Z,1.30
2023-03-11T11:40:06.523Z,1.80
2023-03-11T11:42:33.945Z,1.57
2023-03-11T11:45:02.713Z,1.70
2023-03-11T11:47:36.688Z,1.97
2023-03-11T11:50:08.545Z,1.43
2023-03-11T11:52:37.518Z,1.43
2023-03-11T11:55:06.376Z,1.90
2023-03-11T11:57:34.178Z,1.67
2023-03-11T12:00:04.008Z,1.43
2023-03-11T12:02:41.913Z,1.40
2023-03-11T12:05:26.181Z,2.27
2023-03-11T12:08:13.194Z,1.90
2023-03-11T12:10:44.953Z,1.53
2023-03-11T12:13:31.963Z,1.47
2023-03-11T12:16:13.061Z,1.67
2023-03-11T12:18:42.008Z,1.40
2023-03-11T12:21:10.907Z,2.13
2023-03-11T12:23:49.024Z,1.97
2023-03-11T12:26:23.338Z,1.47
2023-03-11T12:28:58.149Z,1.57
2023-03-11T12:31:27.255Z,1.47
2023-03-11T12:33:58.985Z,1.50
2023-03-11T12:36:34.047Z,1.20
2023-03-11T12:39:04.612Z,1.80
2023-03-11T12:41:42.599Z,1.90
2023-03-11T12:44:21.426Z,1.40
2023-03-11T12:46:56.000Z,1.57
2023-03-11T12:49:30.873Z,1.67
2023-03-11T12:52:14.712Z,1.50
2023-03-11T12:54:43.191Z,1.83
2023-03-11T12:57:19.817Z,1.60
2023-03-11T13:00:05.465Z,1.50
2023-03-11T13:02:34.341Z,1.70
2023-03-11T13:05:07.389Z,1.83
2023-03-11T13:07:39.145Z,1.73
2023-03-11T13:10:07.908Z,1.80
2023-03-11T13:12:39.949Z,1.70
2023-03-11T13:15:20.670Z,1.67
2023-03-11T13:18:06.452Z,1.57
2023-03-11T13:20:43.843Z,1.30
2023-03-11T13:23:27.663Z,2.00
2023-03-11T13:25:56.536Z,1.33
2023-03-11T13:28:42.109Z,2.10
2023-03-11T13:31:27.691Z,1.60
2023-03-11T13:33:55.766Z,1.83
2023-03-11T13:36:41.377Z,1.67
2023-03-11T13:39:11.810Z,1.80
2023-03-11T13:41:40.668Z,1.60
2023-03-11T13:44:21.491Z,1.10
2023-03-11T13:46:51.703Z,1.60
2023-03-11T13:49:33.474Z,1.87
2023-03-11T13:52:02.038Z,1.80
2023-03-11T13:54:34.267Z,1.50
2023-03-11T13:57:03.146Z,2.00
2023-03-11T13:59:31.679Z,1.60
2023-03-11T14:02:06.477Z,1.70
2023-03-11T14:04:35.728Z,1.70
2023-03-11T14:07:07.501Z,1.70
2023-03-11T14:09:35.167Z,1.50
2023-03-11T14:12:08.784Z,2.57
2023-03-11T14:14:43.527Z,1.80
2023-03-11T14:17:12.371Z,1.43
2023-03-11T14:19:39.643Z,1.50
2023-03-11T14:22:08.841Z,1.80
2023-03-11T14:24:36.952Z,1.43
2023-03-11T14:27:05.789Z,2.33
2023-03-11T14:29:34.586Z,1.70
2023-03-11T14:32:04.621Z,1.90
2023-03-11T14:34:32.013Z,1.60
2023-03-11T14:36:59.919Z,1.57
2023-03-11T14:39:31.709Z,1.50
2023-03-11T14:42:00.929Z,1.70
2023-03-11T14:44:28.786Z,1.50
2023-03-11T14:46:58.546Z,1.67
2023-03-11T14:49:25.882Z,1.40
2023-03-11T14:51:57.439Z,1.50
2023-03-11T14:54:26.312Z,1.40
2023-03-11T14:57:03.990Z,1.67
2023-03-11T14:59:35.082Z,1.70
2023-03-11T15:02:15.737Z,1.40
2023-03-11T15:04:45.381Z,1.60
2023-03-11T15:07:13.007Z,1.47
2023-03-11T15:09:41.161Z,1.50
2023-03-11T15:12:08.800Z,1.70
2023-03-11T15:14:37.491Z,1.43
2023-03-11T15:17:41.180Z,1.60
2023-03-11T15:19:47.626Z,1.47
2023-03-11T15:22:19.257Z,1.20
2023-03-11T15:24:48.114Z,1.57
2023-03-11T15:27:31.859Z,1.53
2023-03-11T15:29:59.769Z,1.50
2023-03-11T15:32:28.652Z,1.23
2023-03-11T15:35:02.629Z,1.47
2023-03-11T15:37:29.866Z,1.53
2023-03-11T15:39:58.390Z,1.67
2023-03-11T15:42:26.532Z,1.50
2023-03-11T15:44:55.435Z,1.53
2023-03-11T15:47:23.746Z,1.50
2023-03-11T15:49:51.246Z,1.67
2023-03-11T15:52:21.966Z,1.50
2023-03-11T15:54:55.491Z,1.53
2023-03-11T15:57:28.486Z,1.50
2023-03-11T15:59:56.493Z,1.30
2023-03-11T16:02:25.963Z,1.20
2023-03-11T16:04:53.532Z,1.53
2023-03-11T16:07:33.016Z,1.37
2023-03-11T16:09:49.846Z,1.57
2023-03-11T16:12:21.447Z,1.33
2023-03-11T16:14:49.561Z,1.47
2023-03-11T16:17:18.845Z,1.70
2023-03-11T16:19:49.213Z,1.50
2023-03-11T16:22:20.156Z,1.77
2023-03-11T16:24:48.641Z,1.50
2023-03-11T16:27:17.622Z,7.07
2023-03-11T16:29:45.723Z,7.10
2023-03-11T16:32:13.164Z,2.40
2023-03-11T16:34:40.546Z,1.70
2023-03-11T16:37:08.290Z,1.53
2023-03-11T16:39:35.614Z,1.70
2023-03-11T16:42:02.956Z,1.50
2023-03-11T16:44:30.192Z,1.40
2023-03-11T16:46:57.523Z,1.57
2023-03-11T16:49:24.959Z,1.33
2023-03-11T16:51:52.301Z,1.20
2023-03-11T16:54:19.632Z,1.50
2023-03-11T16:56:47.077Z,1.30
2023-03-11T16:59:14.511Z,1.27
2023-03-11T17:01:42.059Z,1.60
2023-03-11T17:04:09.490Z,1.53
2023-03-11T17:06:36.811Z,1.70
2023-03-11T17:09:04.274Z,1.30
2023-03-11T17:11:33.076Z,1.67
2023-03-11T17:14:15.240Z,2.50
2023-03-11T17:16:29.509Z,1.63
2023-03-11T17:18:56.804Z,2.10
2023-03-11T17:21:24.133Z,1.77
2023-03-11T17:23:53.048Z,1.80
2023-03-11T17:26:20.474Z,2.07
2023-03-11T17:28:48.088Z,1.77
2023-03-11T17:31:16.217Z,1.43
2023-03-11T17:33:43.572Z,1.40
2023-03-11T17:36:12.462Z,1.53
2023-03-11T17:38:39.801Z,1.67
2023-03-11T17:41:08.384Z,1.40
2023-03-11T17:43:35.680Z,1.47
2023-03-11T17:46:04.544Z,1.60
2023-03-11T17:48:31.871Z,1.30
2023-03-11T17:50:59.212Z,1.63
2023-03-11T17:53:26.516Z,1.30
2023-03-11T17:55:54.059Z,1.40
2023-03-11T17:58:21.368Z,1.60
2023-03-11T18:00:48.632Z,1.40
2023-03-11T18:03:15.952Z,1.83
2023-03-11T18:05:43.264Z,2.30
2023-03-11T18:08:10.586Z,1.83
2023-03-11T18:10:37.830Z,2.23
2023-03-11T18:13:05.068Z,1.40
2023-03-11T18:15:32.307Z,1.60
2023-03-11T18:17:59.637Z,1.50
2023-03-11T18:20:26.955Z,1.67
2023-03-11T18:22:55.784Z,1.50
2023-03-11T18:25:23.109Z,1.30
2023-03-11T18:27:50.420Z,1.50
2023-03-11T18:30:17.903Z,1.63
2023-03-11T18:32:45.237Z,1.40
2023-03-11T18:35:13.813Z,1.33
2023-03-11T18:37:41.590Z,1.60
2023-03-11T18:40:09.333Z,1.60
2023-03-11T18:42:36.799Z,1.40
2023-03-11T18:45:04.129Z,1.90
2023-03-11T18:47:32.979Z,1.47
2023-03-11T18:50:00.226Z,1.57
2023-03-11T18:52:27.549Z,1.90
2023-03-11T18:54:54.874Z,1.40
2023-03-11T18:57:22.134Z,1.30
2023-03-11T18:59:51.078Z,1.40
2023-03-11T19:02:18.393Z,1.50
2023-03-11T19:04:45.728Z,1.60
2023-03-11T19:07:15.931Z,1.60
2023-03-11T19:09:43.245Z,1.60
2023-03-11T19:12:10.564Z,1.50
2023-03-11T19:14:37.815Z,2.57
2023-03-11T19:17:05.145Z,1.30
2023-03-11T19:19:33.818Z,1.50
2023-03-11T19:22:01.150Z,1.63
2023-03-11T19:24:28.422Z,1.50
2023-03-11T19:26:55.790Z,1.33
2023-03-11T19:29:24.131Z,1.40
2023-03-11T19:31:51.386Z,1.43
2023-03-11T19:34:20.383Z,1.43
2023-03-11T19:36:47.845Z,1.60
2023-03-11T19:39:16.157Z,1.93
2023-03-11T19:41:43.477Z,1.87
2023-03-11T19:44:10.720Z,1.87
2023-03-11T19:46:38.094Z,1.50
2023-03-11T19:49:05.612Z,1.50
2023-03-11T19:51:48.485Z,1.60
2023-03-11T19:54:01.891Z,1.67
2023-03-11T19:56:29.184Z,1.60
2023-03-11T19:58:56.808Z,1.80
2023-03-11T20:01:25.832Z,1.80
2023-03-11T20:03:53.126Z,1.87
2023-03-11T20:06:22.165Z,1.50
2023-03-11T20:08:50.277Z,1.90
2023-03-11T20:11:17.636Z,1.77
2023-03-11T20:13:45.026Z,1.70
2023-03-11T20:16:13.631Z,2.07
2023-03-11T20:18:41.536Z,2.00
2023-03-11T20:21:09.968Z,1.70
2023-03-11T20:23:37.654Z,1.80
2023-03-11T20:26:05.939Z,2.00
2023-03-11T20:28:33.217Z,2.03
2023-03-11T20:31:00.607Z,1.70
2023-03-11T20:33:27.965Z,1.60
2023-03-11T20:35:56.877Z,2.03
2023-03-11T20:38:24.193Z,1.93
2023-03-11T20:40:53.038Z,1.90
2023-03-11T20:43:20.451Z,1.50
2023-03-11T20:45:47.784Z,1.73
2023-03-11T20:48:15.174Z,1.73
2023-03-11T20:50:42.610Z,1.90
2023-03-11T20:53:10.099Z,2.07
2023-03-11T20:55:40.690Z,1.90
2023-03-11T20:58:08.152Z,1.83
2023-03-11T21:00:35.465Z,1.70
2023-03-11T21:03:03.560Z,2.20
2023-03-11T21:05:32.459Z,2.20
2023-03-11T21:07:59.865Z,2.20
2023-03-11T21:10:27.162Z,1.90
2023-03-11T21:12:54.495Z,2.47
2023-03-11T21:15:21.884Z,2.03
2023-03-11T21:17:49.194Z,2.00
2023-03-11T21:20:16.998Z,2.13
2023-03-11T21:22:45.736Z,2.20
2023-03-11T21:25:13.170Z,1.90
2023-03-11T21:27:40.749Z,2.20
2023-03-11T21:30:08.450Z,2.33
2023-03-11T21:32:35.885Z,2.10
2023-03-11T21:35:04.059Z,2.40
2023-03-11T21:37:31.479Z,2.27
2023-03-11T21:39:59.003Z,2.40
2023-03-11T21:42:27.984Z,2.40
2023-03-11T21:44:55.539Z,2.23
2023-03-11T21:47:23.028Z,2.53
2023-03-11T21:49:50.488Z,2.27
2023-03-11T21:52:17.862Z,2.03
2023-03-11T21:54:45.191Z,2.30
2023-03-11T21:57:12.633Z,2.47
2023-03-11T21:59:39.972Z,2.10
2023-03-11T22:02:07.360Z,2.80
2023-03-11T22:04:35.003Z,2.30
2023-03-11T22:07:02.454Z,2.20
2023-03-11T22:09:29.900Z,2.23
2023-03-11T22:11:57.283Z,2.60
2023-03-11T22:14:24.984Z,2.30
2023-03-11T22:16:52.712Z,2.60
2023-03-11T22:19:20.533Z,2.33
2023-03-11T22:21:48.968Z,2.50
2023-03-11T22:24:16.721Z,2.83
2023-03-11T22:26:44.053Z,2.30
2023-03-11T22:29:13.552Z,2.10
2023-03-11T22:31:41.200Z,2.20
2023-03-11T22:34:08.602Z,2.10
2023-03-11T22:36:36.051Z,2.10
2023-03-11T22:39:04.215Z,2.17
2023-03-11T22:41:31.699Z,1.97
2023-03-11T22:43:59.055Z,2.03
2023-03-11T22:46:26.527Z,1.93
2023-03-11T22:48:53.837Z,2.00
2023-03-11T22:51:21.188Z,2.43
2023-03-11T22:53:48.515Z,1.47
2023-03-11T22:56:16.261Z,1.70
2023-03-11T22:58:43.682Z,2.23
2023-03-11T23:01:11.193Z,1.83
2023-03-11T23:03:38.898Z,2.00
2023-03-11T23:06:07.750Z,1.80
2023-03-11T23:08:35.710Z,1.87
2023-03-11T23:11:07.674Z,2.10
2023-03-11T23:13:38.091Z,1.93
2023-03-11T23:16:07.158Z,2.00
2023-03-11T23:18:34.633Z,2.20
2023-03-11T23:21:01.891Z,2.20
2023-03-11T23:23:29.173Z,2.20
2023-03-11T23:25:56.511Z,1.80
2023-03-11T23:28:23.876Z,2.27
2023-03-11T23:30:51.233Z,1.90
2023-03-11T23:33:18.525Z,2.07
2023-03-11T23:35:45.807Z,2.37
2023-03-11T23:38:13.097Z,1.83
2023-03-11T23:40:41.291Z,2.20
2023-03-11T23:43:08.662Z,2.40
2023-03-11T23:45:35.977Z,2.03
2023-03-11T23:48:03.294Z,2.10
2023-03-11T23:50:30.609Z,1.80
2023-03-11T23:52:58.115Z,2.13
2023-03-11T23:55:25.427Z,2.00
2023-03-11T23:57:52.712Z,1.80
